createdAt,value
2023-08-12T00:00:48.023Z,15.40
2023-08-12T00:05:49.963Z,15.40
2023-08-12T00:10:51.803Z,15.40
2023-08-12T00:15:53.867Z,15.30
2023-08-12T00:20:56.192Z,15.30
2023-08-12T00:25:59.938Z,15.20
2023-08-12T00:31:01.795Z,15.10
2023-08-12T00:36:03.833Z,15.00
2023-08-12T00:41:05.693Z,14.90
2023-08-12T00:46:07.872Z,14.90
2023-08-12T00:51:10.242Z,14.90
2023-08-12T00:56:12.100Z,14.90
2023-08-12T01:01:15.601Z,14.90
2023-08-12T01:06:17.440Z,15.00
2023-08-12T01:11:45.137Z,15.00
2023-08-12T01:16:50.916Z,14.90
2023-08-12T01:21:54.309Z,14.90
2023-08-12T01:26:56.723Z,14.90
2023-08-12T01:32:05.043Z,14.80
2023-08-12T01:37:12.069Z,14.70
2023-08-12T01:42:15.387Z,14.70
2023-08-12T01:47:17.253Z,14.70
2023-08-12T01:52:19.153Z,14.60
2023-08-12T01:57:21.030Z,14.60
2023-08-12T02:02:23.864Z,14.60
2023-08-12T02:07:26.306Z,14.60
2023-08-12T02:12:28.121Z,14.50
2023-08-12T02:17:30.002Z,14.50
2023-08-12T02:22:31.814Z,14.50
2023-08-12T02:27:33.685Z,14.40
2023-08-12T02:32:35.560Z,14.40
2023-08-12T02:37:37.439Z,14.40
2023-08-12T02:42:39.332Z,14.30
2023-08-12T02:47:41.216Z,14.30
2023-08-12T02:52:43.108Z,14.30
2023-08-12T02:57:44.925Z,14.20
2023-08-12T03:02:46.926Z,14.10
2023-08-12T03:07:49.038Z,14.10
2023-08-12T03:12:51.092Z,14.20
2023-08-12T03:17:54.461Z,14.10
2023-08-12T03:22:56.821Z,14.20
2023-08-12T03:27:58.892Z,14.10
2023-08-12T03:33:02.768Z,14.10
2023-08-12T03:38:07.961Z,14.10
2023-08-12T03:43:10.069Z,14.00
2023-08-12T03:48:13.419Z,14.00
2023-08-12T03:53:15.436Z,14.00
2023-08-12T03:58:18.206Z,13.90
2023-08-12T04:03:20.868Z,14.00
2023-08-12T04:08:24.798Z,13.90
2023-08-12T04:13:27.653Z,13.80
2023-08-12T04:18:29.596Z,13.70
2023-08-12T04:23:31.465Z,13.70
2023-08-12T04:28:33.636Z,13.70
2023-08-12T04:33:35.621Z,13.70
2023-08-12T04:38:37.500Z,13.80
2023-08-12T04:43:43.048Z,13.70
2023-08-12T04:48:45.424Z,13.80
2023-08-12T04:53:47.449Z,13.90
2023-08-12T04:58:50.103Z,13.90
2023-08-12T05:03:52.181Z,13.90
2023-08-12T05:08:54.300Z,13.90
2023-08-12T05:13:56.288Z,13.90
2023-08-12T05:18:58.222Z,14.00
2023-08-12T05:24:00.104Z,14.10
2023-08-12T05:29:03.253Z,14.30
2023-08-12T05:34:05.613Z,14.40
2023-08-12T05:39:07.507Z,14.50
2023-08-12T05:44:09.409Z,14.70
2023-08-12T05:49:11.227Z,14.80
2023-08-12T05:54:13.061Z,15.00
2023-08-12T05:59:14.961Z,15.10
2023-08-12T06:04:16.793Z,15.20
2023-08-12T06:09:19.240Z,15.50
2023-08-12T06:14:21.120Z,15.70
2023-08-12T06:19:23.300Z,16.10
2023-08-12T06:24:25.128Z,16.40
2023-08-12T06:29:27.008Z,16.70
2023-08-12T06:34:28.870Z,17.10
2023-08-12T06:39:30.747Z,17.50
2023-08-12T06:44:32.574Z,17.90
2023-08-12T06:49:34.460Z,18.20
2023-08-12T06:54:36.315Z,18.70
2023-08-12T06:59:38.496Z,19.20
2023-08-12T07:04:40.394Z,19.60
2023-08-12T07:09:42.404Z,20.00
2023-08-12T07:14:44.226Z,20.40
2023-08-12T07:19:46.057Z,20.70
2023-08-12T07:24:48.024Z,21.10
2023-08-12T07:29:49.842Z,21.60
2023-08-12T07:34:51.694Z,21.80
2023-08-12T07:39:53.520Z,22.10
2023-08-12T07:44:55.460Z,22.40
2023-08-12T07:49:57.352Z,22.60
2023-08-12T07:54:59.154Z,22.80
2023-08-12T08:00:00.979Z,23.00
2023-08-12T08:05:03.909Z,23.30
2023-08-12T08:10:06.524Z,23.60
2023-08-12T08:15:08.657Z,23.70
2023-08-12T08:20:11.690Z,23.70
2023-08-12T08:25:13.703Z,23.80
2023-08-12T08:30:15.695Z,24.10
2023-08-12T08:35:17.722Z,24.40
2023-08-12T08:40:21.829Z,24.50
2023-08-12T08:45:24.518Z,24.70
2023-08-12T08:50:26.891Z,24.90
2023-08-12T08:55:28.839Z,25.20
2023-08-12T09:00:31.173Z,25.40
2023-08-12T09:05:35.030Z,25.20
2023-08-12T09:10:38.788Z,25.10
2023-08-12T09:15:40.684Z,25.10
2023-08-12T09:20:44.480Z,25.30
2023-08-12T09:25:47.110Z,25.50
2023-08-12T09:30:53.660Z,25.60
2023-08-12T09:35:58.009Z,25.80
2023-08-12T09:41:00.281Z,26.00
2023-08-12T09:51:05.081Z,26.20
2023-08-12T09:56:13.175Z,26.20
2023-08-12T10:01:19.565Z,26.10
2023-08-12T10:06:21.766Z,26.20
2023-08-12T10:11:23.853Z,26.20
2023-08-12T10:16:26.540Z,26.10
2023-08-12T10:21:29.356Z,26.20
2023-08-12T10:26:31.502Z,26.20
2023-08-12T10:31:33.612Z,26.20
2023-08-12T10:36:37.378Z,26.20
2023-08-12T10:41:55.585Z,26.60
2023-08-12T10:46:59.666Z,26.90
2023-08-12T10:52:03.678Z,27.10
2023-08-12T10:57:14.518Z,27.20
2023-08-12T11:02:25.379Z,27.20
2023-08-12T11:07:46.505Z,27.00
2023-08-12T11:12:57.291Z,27.00
2023-08-12T11:17:59.392Z,27.10
2023-08-12T11:23:02.299Z,27.20
2023-08-12T11:28:06.390Z,27.30
2023-08-12T11:33:08.650Z,27.30
2023-08-12T11:38:10.562Z,27.10
2023-08-12T11:43:12.444Z,26.90
2023-08-12T11:48:14.482Z,26.60
2023-08-12T11:53:16.498Z,26.30
2023-08-12T11:58:19.912Z,26.20
2023-08-12T12:03:21.848Z,26.00
2023-08-12T12:08:23.697Z,26.00
2023-08-12T12:13:26.738Z,26.00
2023-08-12T12:18:29.029Z,25.90
2023-08-12T12:23:32.252Z,25.90
2023-08-12T12:28:34.112Z,25.80
2023-08-12T12:33:35.922Z,25.60
2023-08-12T12:38:37.847Z,25.80
2023-08-12T12:43:39.742Z,26.10
2023-08-12T12:48:41.954Z,26.50
2023-08-12T12:53:43.816Z,26.80
2023-08-12T12:58:45.714Z,27.00
2023-08-12T13:03:47.566Z,27.20
2023-08-12T13:08:51.005Z,27.30
2023-08-12T13:13:53.028Z,27.50
2023-08-12T13:18:54.913Z,27.70
2023-08-12T13:23:57.227Z,27.80
2023-08-12T13:28:59.049Z,27.80
2023-08-12T13:34:00.940Z,27.70
2023-08-12T13:39:02.971Z,27.50
2023-08-12T13:44:05.086Z,27.40
2023-08-12T13:49:07.218Z,27.50
2023-08-12T13:54:09.023Z,27.60
2023-08-12T13:59:10.898Z,27.50
2023-08-12T14:04:12.736Z,27.40
2023-08-12T14:09:15.387Z,27.50
2023-08-12T14:14:17.452Z,27.30
2023-08-12T14:19:20.095Z,27.40
2023-08-12T14:24:22.566Z,27.20
2023-08-12T14:29:24.536Z,26.80
2023-08-12T14:34:26.480Z,26.60
2023-08-12T14:39:28.399Z,26.40
2023-08-12T14:44:34.158Z,26.20
2023-08-12T14:49:40.084Z,25.80
2023-08-12T14:54:41.893Z,25.60
2023-08-12T14:59:44.007Z,25.60
2023-08-12T15:04:45.938Z,25.50
2023-08-12T15:09:47.749Z,25.30
2023-08-12T15:14:49.694Z,25.30
2023-08-12T15:19:51.521Z,25.30
2023-08-12T15:24:54.273Z,25.40
2023-08-12T15:29:56.169Z,25.50
2023-08-12T15:34:57.961Z,25.30
2023-08-12T15:39:59.815Z,25.30
2023-08-12T15:45:04.115Z,25.20
2023-08-12T15:50:08.155Z,25.20
2023-08-12T15:55:10.178Z,25.10
2023-08-12T16:00:12.315Z,25.00
2023-08-12T16:05:14.790Z,25.00
2023-08-12T16:10:16.738Z,24.90
2023-08-12T16:15:18.639Z,24.70
2023-08-12T16:20:20.538Z,24.50
2023-08-12T16:25:22.633Z,24.30
2023-08-12T16:30:24.495Z,24.10
2023-08-12T16:35:26.448Z,24.00
2023-08-12T16:40:30.963Z,23.90
2023-08-12T16:45:33.112Z,23.80
2023-08-12T16:50:35.110Z,23.70
2023-08-12T16:55:36.974Z,23.60
2023-08-12T17:00:38.814Z,23.50
2023-08-12T17:05:40.681Z,23.40
2023-08-12T17:10:42.547Z,23.40
2023-08-12T17:15:46.293Z,23.20
2023-08-12T17:20:49.169Z,23.10
2023-08-12T17:25:51.064Z,23.10
2023-08-12T17:30:53.759Z,23.10
2023-08-12T17:35:57.299Z,23.00
2023-08-12T17:40:59.126Z,23.00
2023-08-12T17:46:01.018Z,23.20
2023-08-12T17:51:02.922Z,23.40
2023-08-12T17:56:04.774Z,23.30
2023-08-12T18:01:07.334Z,23.20
2023-08-12T18:06:09.446Z,23.10
2023-08-12T18:11:11.239Z,23.00
2023-08-12T18:16:14.539Z,22.80
2023-08-12T18:21:16.667Z,22.70
2023-08-12T18:26:20.734Z,22.60
2023-08-12T18:31:22.539Z,22.40
2023-08-12T18:36:24.550Z,22.30
2023-08-12T18:41:26.492Z,22.20
2023-08-12T18:46:28.536Z,22.10
2023-08-12T18:51:30.492Z,22.00
2023-08-12T18:56:32.426Z,22.00
2023-08-12T19:01:34.391Z,21.80
2023-08-12T19:06:36.241Z,21.70
2023-08-12T19:11:38.098Z,21.60
2023-08-12T19:16:40.372Z,21.50
2023-08-12T19:21:42.278Z,21.50
2023-08-12T19:26:44.253Z,21.40
2023-08-12T19:31:46.124Z,21.30
2023-08-12T19:36:48.220Z,21.20
2023-08-12T19:41:50.169Z,21.10
2023-08-12T19:46:52.142Z,21.00
2023-08-12T19:51:54.121Z,20.80
2023-08-12T19:56:56.864Z,20.60
2023-08-12T20:01:58.805Z,20.50
2023-08-12T20:07:01.564Z,20.40
2023-08-12T20:12:03.607Z,20.40
2023-08-12T20:17:05.705Z,20.30
2023-08-12T20:22:08.600Z,20.20
2023-08-12T20:27:12.111Z,20.20
2023-08-12T20:32:14.371Z,20.10
2023-08-12T20:37:16.837Z,20.10
2023-08-12T20:42:19.027Z,20.10
2023-08-12T20:47:23.657Z,20.10
2023-08-12T20:52:25.648Z,20.10
2023-08-12T20:57:27.568Z,20.10
2023-08-12T21:02:29.614Z,20.10
2023-08-12T21:07:31.537Z,20.10
2023-08-12T21:12:33.473Z,20.00
2023-08-12T21:17:35.575Z,19.90
2023-08-12T21:22:37.692Z,19.90
2023-08-12T21:27:39.711Z,19.80
2023-08-12T21:32:41.637Z,19.80
2023-08-12T21:37:43.764Z,19.70
2023-08-12T21:42:45.578Z,19.70
2023-08-12T21:47:47.607Z,19.50
2023-08-12T21:52:49.681Z,19.50
2023-08-12T21:57:52.379Z,19.50
2023-08-12T22:02:55.787Z,19.40
2023-08-12T22:07:57.857Z,19.30
2023-08-12T22:12:59.782Z,19.20
2023-08-12T22:18:01.591Z,19.20
2023-08-12T22:23:03.944Z,19.10
2023-08-12T22:28:06.120Z,19.20
2023-08-12T22:33:08.560Z,19.20
2023-08-12T22:38:10.549Z,19.20
2023-08-12T22:43:12.471Z,19.10
2023-08-12T22:48:14.316Z,19.10
2023-08-12T22:53:16.154Z,19.10
2023-08-12T22:58:18.052Z,19.00
2023-08-12T23:03:19.943Z,18.90
2023-08-12T23:08:21.941Z,18.80
2023-08-12T23:13:23.837Z,18.80
2023-08-12T23:18:26.641Z,18.70
2023-08-12T23:23:28.438Z,18.70
2023-08-12T23:28:30.337Z,18.60
2023-08-12T23:33:32.172Z,18.50
2023-08-12T23:38:33.990Z,18.50
2023-08-12T23:43:35.783Z,18.40
2023-08-12T23:48:37.593Z,18.40
2023-08-12T23:53:39.772Z,18.30
2023-08-12T23:58:41.625Z,18.20
